Time;durP1;ratioP1;P1;durP2;ratioP2;P2;SDS_P1;SDS_P2;PMS_P1;PMS_P2;Temp;Humidity;BMP_temperature;BMP_pressure;BME280_temperature;BME280_humidity;BME280_pressure;Samples;Min_cycle;Max_cycle;Signal;HPM_P1;HPM_P2
2023/03/05 00:01:21;;;;;;;9.27;3.10;;;6.40;99.90;;;;;;5017896;28;20217;-66
2023/03/05 00:03:49;;;;;;;8.50;3.00;;;6.30;99.90;;;;;;5008637;28;20197;-66
2023/03/05 00:06:16;;;;;;;8.47;3.43;;;6.20;99.90;;;;;;5018823;28;20234;-66
2023/03/05 00:08:43;;;;;;;7.47;2.97;;;6.30;99.90;;;;;;5020782;28;21124;-66
2023/03/05 00:11:12;;;;;;;9.03;2.83;;;6.30;99.90;;;;;;5005580;28;20238;-66
2023/03/05 00:13:39;;;;;;;9.63;3.23;;;6.30;99.90;;;;;;5016682;28;20211;-66
2023/03/05 00:16:09;;;;;;;7.67;2.67;;;6.30;99.90;;;;;;5013930;28;20250;-66
2023/03/05 00:18:37;;;;;;;9.47;2.43;;;6.40;99.90;;;;;;5018506;28;20247;-66
2023/03/05 00:21:16;;;;;;;7.67;2.50;;;6.40;99.90;;;;;;5016099;28;20227;-66
2023/03/05 00:23:43;;;;;;;5.57;2.40;;;6.40;99.90;;;;;;5000979;28;20200;-66
2023/03/05 00:26:09;;;;;;;10.00;2.80;;;6.40;99.90;;;;;;5014581;28;20285;-67
2023/03/05 00:28:36;;;;;;;7.87;2.20;;;6.40;99.90;;;;;;5019676;28;20204;-67
2023/03/05 00:31:04;;;;;;;5.80;2.00;;;6.30;99.90;;;;;;5018484;28;20274;-66
2023/03/05 00:33:31;;;;;;;4.90;1.70;;;6.40;99.90;;;;;;5016782;28;20208;-66
2023/03/05 00:36:01;;;;;;;6.77;2.27;;;6.50;99.90;;;;;;4998585;28;20242;-66
2023/03/05 00:38:28;;;;;;;10.40;2.63;;;6.40;99.90;;;;;;5004817;28;20291;-66
2023/03/05 00:40:54;;;;;;;6.80;1.80;;;6.50;99.90;;;;;;5017203;28;20192;-66
2023/03/05 00:43:21;;;;;;;7.60;2.33;;;6.20;99.90;;;;;;5018398;28;20671;-66
2023/03/05 00:45:48;;;;;;;7.33;2.17;;;6.10;99.90;;;;;;4996484;28;20344;-67
2023/03/05 00:48:15;;;;;;;8.03;2.10;;;6.20;99.90;;;;;;5016048;28;20218;-66
2023/03/05 00:50:42;;;;;;;7.50;2.20;;;6.20;99.90;;;;;;5016408;28;20208;-66
2023/03/05 00:53:09;;;;;;;7.03;2.33;;;6.10;99.90;;;;;;5015614;28;20222;-66
2023/03/05 00:55:35;;;;;;;4.37;1.60;;;6.00;99.90;;;;;;5014011;28;20218;-66
2023/03/05 00:58:02;;;;;;;9.33;2.47;;;6.10;99.90;;;;;;5014436;28;20228;-66
2023/03/05 01:00:29;;;;;;;8.93;2.17;;;6.30;99.90;;;;;;5010462;28;20201;-66
2023/03/05 01:02:56;;;;;;;9.57;2.47;;;6.30;99.90;;;;;;5015954;28;20260;-66
2023/03/05 01:05:23;;;;;;;5.00;1.70;;;6.20;99.90;;;;;;5014505;28;20701;-66
2023/03/05 01:07:53;;;;;;;4.47;1.70;;;6.30;99.90;;;;;;5013902;28;20221;-66
2023/03/05 01:10:22;;;;;;;5.03;2.63;;;6.30;99.90;;;;;;5018297;28;20293;-66
2023/03/05 01:12:49;;;;;;;4.37;2.00;;;6.30;99.90;;;;;;5008368;28;20285;-66
2023/03/05 01:15:16;;;;;;;4.60;1.80;;;6.20;99.90;;;;;;4996787;28;20294;-66
2023/03/05 01:17:43;;;;;;;9.43;1.87;;;6.20;99.90;;;;;;5019369;28;20235;-66
2023/03/05 01:20:13;;;;;;;6.60;2.23;;;6.20;99.90;;;;;;5020246;28;20214;-66
2023/03/05 01:22:40;;;;;;;6.10;1.77;;;6.20;99.90;;;;;;5016616;28;20257;-66
2023/03/05 01:25:08;;;;;;;3.03;1.43;;;6.30;99.90;;;;;;5020936;28;20247;-66
2023/03/05 01:27:35;;;;;;;8.27;2.07;;;6.30;99.90;;;;;;5021371;28;20316;-66
2023/03/05 01:30:02;;;;;;;6.33;1.40;;;6.30;99.90;;;;;;5019905;28;20204;-66
2023/03/05 01:32:29;;;;;;;5.73;1.43;;;6.30;99.90;;;;;;5021730;28;20206;-66
2023/03/05 01:34:56;;;;;;;4.27;1.53;;;6.30;99.90;;;;;;5018156;28;20282;-66
2023/03/05 01:37:23;;;;;;;5.87;1.60;;;6.30;99.90;;;;;;5021076;28;20211;-66
2023/03/05 01:39:50;;;;;;;5.07;1.40;;;6.10;99.90;;;;;;5020066;28;20209;-66
2023/03/05 01:42:18;;;;;;;5.83;1.43;;;6.20;99.90;;;;;;5021130;28;20224;-66
2023/03/05 01:45:11;;;;;;;9.40;2.00;;;6.20;99.90;;;;;;5016982;28;20933;-65
2023/03/05 01:47:39;;;;;;;6.27;2.17;;;6.30;99.90;;;;;;5022810;28;20217;-66
2023/03/05 01:50:10;;;;;;;4.47;1.23;;;6.10;99.90;;;;;;5022742;28;20200;-66
2023/03/05 01:52:40;;;;;;;6.60;2.27;;;6.20;99.90;;;;;;5020941;28;20232;-65
2023/03/05 01:55:16;;;;;;;5.67;1.30;;;6.30;99.90;;;;;;5021381;28;20693;-66
2023/03/05 01:57:48;;;;;;;3.43;1.57;;;6.30;99.90;;;;;;5015810;28;20220;-66
2023/03/05 02:00:20;;;;;;;6.53;2.10;;;6.40;99.90;;;;;;5018154;28;20399;-66
2023/03/05 02:02:49;;;;;;;8.87;2.00;;;6.30;99.90;;;;;;5020367;28;20201;-65
2023/03/05 02:05:27;;;;;;;2.97;1.70;;;6.10;99.90;;;;;;5014208;28;20198;-66
2023/03/05 02:07:57;;;;;;;8.10;1.80;;;6.20;99.90;;;;;;5018846;28;20249;-66
2023/03/05 02:10:27;;;;;;;11.60;2.07;;;6.30;99.90;;;;;;5019824;28;20658;-66
2023/03/05 02:12:59;;;;;;;7.47;1.87;;;6.00;99.90;;;;;;5021635;28;20208;-66
2023/03/05 02:15:27;;;;;;;6.57;1.67;;;6.10;99.90;;;;;;5017873;28;20266;-66
2023/03/05 02:17:55;;;;;;;6.90;1.90;;;6.10;99.90;;;;;;5021506;28;20737;-66
2023/03/05 02:20:25;;;;;;;8.03;1.40;;;6.10;99.90;;;;;;5022260;28;20332;-66
2023/03/05 02:22:52;;;;;;;7.73;2.00;;;6.30;99.90;;;;;;5019703;28;20213;-66
2023/03/05 02:25:29;;;;;;;4.93;1.43;;;5.90;99.90;;;;;;5020361;28;20237;-65
2023/03/05 02:28:07;;;;;;;3.80;1.33;;;5.90;99.90;;;;;;5019195;28;20221;-65
2023/03/05 02:30:34;;;;;;;4.70;1.37;;;5.50;99.90;;;;;;5020380;28;20716;-65
2023/03/05 02:33:01;;;;;;;6.83;1.70;;;5.40;99.90;;;;;;5020263;28;20710;-66
2023/03/05 02:35:28;;;;;;;5.70;1.63;;;5.30;99.90;;;;;;5019613;28;20682;-65
2023/03/05 02:37:56;;;;;;;6.33;1.57;;;5.20;99.90;;;;;;5000843;28;20708;-66
2023/03/05 02:40:23;;;;;;;3.27;1.30;;;5.20;99.90;;;;;;5020132;28;20671;-65
2023/03/05 02:42:50;;;;;;;6.27;1.70;;;5.10;99.90;;;;;;5018660;28;20208;-65
2023/03/05 02:45:17;;;;;;;4.40;1.87;;;5.10;99.90;;;;;;5018344;28;20283;-65
2023/03/05 02:47:44;;;;;;;4.80;1.80;;;5.00;99.90;;;;;;5019560;28;20306;-65
2023/03/05 02:50:11;;;;;;;4.83;1.53;;;5.00;99.90;;;;;;5002604;28;20644;-65
2023/03/05 02:52:38;;;;;;;5.20;1.77;;;4.80;99.90;;;;;;5001551;28;20202;-65
2023/03/05 02:55:05;;;;;;;7.90;2.00;;;4.70;99.90;;;;;;5018411;28;20223;-65
2023/03/05 02:57:32;;;;;;;5.23;1.73;;;4.60;99.90;;;;;;5018458;28;20299;-65
2023/03/05 02:59:59;;;;;;;5.53;1.33;;;4.60;99.90;;;;;;5018532;28;20240;-66
2023/03/05 03:02:26;;;;;;;4.07;1.87;;;4.60;99.90;;;;;;5018967;28;20641;-64
2023/03/05 03:04:53;;;;;;;5.73;1.70;;;4.70;99.90;;;;;;5016624;28;20213;-64
2023/03/05 03:07:19;;;;;;;4.80;1.60;;;4.90;99.90;;;;;;5017690;28;20583;-64
2023/03/05 03:09:46;;;;;;;2.33;1.43;;;5.00;99.90;;;;;;5018319;28;20317;-64
2023/03/05 03:12:13;;;;;;;3.30;1.63;;;5.00;99.90;;;;;;5016771;28;20668;-64
2023/03/05 03:14:41;;;;;;;4.30;1.70;;;5.20;99.90;;;;;;5017466;28;20262;-64
2023/03/05 03:17:11;;;;;;;8.00;2.07;;;5.10;99.90;;;;;;5019004;28;20240;-64
2023/03/05 03:19:39;;;;;;;5.20;1.77;;;5.00;99.90;;;;;;5017576;28;21705;-68
2023/03/05 03:22:08;;;;;;;2.17;1.47;;;4.90;99.90;;;;;;5017323;28;20594;-64
2023/03/05 03:24:38;;;;;;;7.97;1.80;;;4.80;99.90;;;;;;5017241;28;20610;-64
2023/03/05 03:27:06;;;;;;;6.33;1.53;;;4.70;99.90;;;;;;5015666;28;20229;-64
2023/03/05 03:29:33;;;;;;;8.13;2.17;;;4.70;99.90;;;;;;5015857;28;20246;-64
2023/03/05 03:32:00;;;;;;;7.47;1.93;;;4.60;99.90;;;;;;5018194;28;20271;-64
2023/03/05 03:34:27;;;;;;;8.53;1.83;;;4.60;99.90;;;;;;5014326;28;20218;-64
2023/03/05 03:36:54;;;;;;;8.63;1.67;;;4.60;99.90;;;;;;5000002;28;20201;-64
2023/03/05 03:39:22;;;;;;;6.97;1.80;;;4.60;99.90;;;;;;5013150;28;20669;-64
2023/03/05 03:41:51;;;;;;;4.93;1.73;;;4.50;99.90;;;;;;5016958;28;20199;-64
2023/03/05 03:44:19;;;;;;;6.10;2.10;;;4.50;99.90;;;;;;5013165;28;20262;-64
2023/03/05 03:46:48;;;;;;;7.90;2.00;;;4.40;99.90;;;;;;5014954;28;20200;-64
2023/03/05 03:49:21;;;;;;;7.57;2.30;;;4.30;99.90;;;;;;5015509;28;20203;-64
2023/03/05 03:51:50;;;;;;;6.77;1.97;;;4.20;99.90;;;;;;5017066;28;20638;-67
2023/03/05 03:54:18;;;;;;;3.20;1.90;;;4.30;99.90;;;;;;5012825;28;20592;-64
2023/03/05 03:56:45;;;;;;;6.90;1.87;;;4.30;99.90;;;;;;5001236;28;20704;-64
2023/03/05 03:59:12;;;;;;;7.77;2.27;;;4.20;99.90;;;;;;5016647;28;20651;-64
2023/03/05 04:01:40;;;;;;;9.10;2.07;;;4.20;99.90;;;;;;5015976;28;20652;-64
2023/03/05 04:04:07;;;;;;;9.23;2.47;;;4.30;99.90;;;;;;5015771;28;20248;-64
2023/03/05 04:06:34;;;;;;;5.50;2.30;;;4.30;99.90;;;;;;5017216;28;20356;-64
2023/03/05 04:09:01;;;;;;;7.60;2.20;;;4.40;99.90;;;;;;5015520;28;20309;-64
2023/03/05 04:11:28;;;;;;;8.07;2.03;;;4.60;99.90;;;;;;5017615;28;20726;-64
2023/03/05 04:13:55;;;;;;;8.47;2.00;;;4.50;99.90;;;;;;5013948;28;20612;-64
2023/03/05 04:16:22;;;;;;;5.97;2.03;;;4.50;99.90;;;;;;5013909;28;20604;-64
2023/03/05 04:18:49;;;;;;;7.17;2.30;;;4.50;99.90;;;;;;4998053;28;20227;-64
2023/03/05 04:21:16;;;;;;;6.33;2.30;;;4.60;99.90;;;;;;5017412;28;20702;-65
2023/03/05 04:23:43;;;;;;;7.30;2.43;;;4.50;99.90;;;;;;5013864;28;20304;-64
2023/03/05 04:26:10;;;;;;;8.80;2.23;;;4.50;99.90;;;;;;5012836;28;20733;-64
2023/03/05 04:28:37;;;;;;;7.03;2.27;;;4.30;99.90;;;;;;5017457;28;20307;-66
2023/03/05 04:31:04;;;;;;;10.07;3.13;;;4.40;99.90;;;;;;5013439;28;20200;-64
2023/03/05 04:33:32;;;;;;;12.53;2.90;;;4.50;99.90;;;;;;5001141;28;20562;-64
2023/03/05 04:35:59;;;;;;;8.20;2.50;;;4.50;99.90;;;;;;4999527;28;20208;-64
2023/03/05 04:38:26;;;;;;;7.40;2.23;;;4.50;99.90;;;;;;5016972;28;20207;-64
2023/03/05 04:40:53;;;;;;;5.73;2.60;;;4.60;99.90;;;;;;5014496;28;20251;-65
2023/03/05 04:43:20;;;;;;;9.10;2.40;;;4.50;99.90;;;;;;5022632;28;20200;-64
2023/03/05 04:45:47;;;;;;;5.03;2.27;;;4.60;99.90;;;;;;5019300;28;20291;-65
2023/03/05 04:48:13;;;;;;;8.80;2.60;;;4.60;99.90;;;;;;5018412;28;20213;-64
2023/03/05 04:50:40;;;;;;;9.77;3.13;;;4.70;99.90;;;;;;5010980;28;20286;-64
2023/03/05 04:53:07;;;;;;;6.23;2.57;;;4.60;99.90;;;;;;5021349;28;20226;-64
2023/03/05 04:55:34;;;;;;;6.43;2.50;;;4.60;99.90;;;;;;5021342;28;20541;-64
2023/03/05 04:58:01;;;;;;;7.43;3.10;;;4.60;99.90;;;;;;5022194;28;20275;-65
2023/03/05 05:00:28;;;;;;;8.43;2.53;;;4.60;99.90;;;;;;5019773;28;20296;-64
2023/03/05 05:02:54;;;;;;;7.67;3.17;;;4.40;99.90;;;;;;5021383;28;20207;-64
2023/03/05 05:05:24;;;;;;;5.90;2.47;;;4.30;99.90;;;;;;5018630;28;20656;-64
2023/03/05 05:07:56;;;;;;;9.67;3.30;;;4.20;99.90;;;;;;5004919;28;20904;-64
2023/03/05 05:10:24;;;;;;;14.30;3.97;;;4.20;99.90;;;;;;5022154;28;20255;-62
2023/03/05 05:12:51;;;;;;;4.87;2.87;;;4.20;99.90;;;;;;5020224;28;20228;-62
2023/03/05 05:15:18;;;;;;;6.73;2.70;;;4.30;99.90;;;;;;5018260;28;20645;-62
2023/03/05 05:17:45;;;;;;;8.37;2.90;;;4.30;99.90;;;;;;5020449;28;20271;-64
2023/03/05 05:20:14;;;;;;;7.53;3.43;;;4.20;99.90;;;;;;5018435;28;20235;-62
2023/03/05 05:22:42;;;;;;;9.97;3.80;;;4.30;99.90;;;;;;5003354;28;20205;-63
2023/03/05 05:25:09;;;;;;;10.50;4.00;;;4.50;99.90;;;;;;5019586;28;20271;-62
2023/03/05 05:27:38;;;;;;;9.17;4.00;;;4.60;99.90;;;;;;5019849;28;20219;-63
2023/03/05 05:30:06;;;;;;;7.87;3.83;;;4.60;99.90;;;;;;5020511;28;20671;-63
2023/03/05 05:32:33;;;;;;;9.93;4.50;;;4.70;99.90;;;;;;5021024;28;20665;-63
2023/03/05 05:35:00;;;;;;;9.47;4.13;;;4.70;99.90;;;;;;5019323;28;20538;-63
2023/03/05 05:37:28;;;;;;;6.73;4.17;;;4.80;99.90;;;;;;5022050;28;20217;-62
2023/03/05 05:39:55;;;;;;;8.97;4.67;;;4.90;99.90;;;;;;5020740;28;20271;-63
2023/03/05 05:42:23;;;;;;;10.50;4.43;;;5.10;99.90;;;;;;5019157;28;20217;-64
2023/03/05 05:44:50;;;;;;;10.47;4.20;;;5.10;99.90;;;;;;5018837;28;20241;-63
2023/03/05 05:47:17;;;;;;;9.67;4.33;;;5.20;99.90;;;;;;5021172;28;20204;-63
2023/03/05 05:49:44;;;;;;;5.77;4.10;;;5.30;99.90;;;;;;5020100;28;20240;-63
2023/03/05 05:52:12;;;;;;;13.37;4.40;;;5.40;99.90;;;;;;5018330;28;20236;-63
2023/03/05 05:54:39;;;;;;;6.60;4.70;;;5.40;99.90;;;;;;5000335;28;20212;-63
2023/03/05 05:57:07;;;;;;;9.10;4.73;;;5.40;99.90;;;;;;5018446;28;20288;-63
2023/03/05 05:59:34;;;;;;;11.07;4.77;;;5.40;99.90;;;;;;5019989;28;20243;-63
2023/03/05 06:02:00;;;;;;;6.37;4.20;;;5.40;99.90;;;;;;5020909;28;20263;-63
2023/03/05 06:04:27;;;;;;;9.57;4.17;;;5.40;99.90;;;;;;5002718;28;21046;-63
2023/03/05 06:06:54;;;;;;;12.67;4.43;;;5.40;99.90;;;;;;5021769;28;20209;-63
2023/03/05 06:09:21;;;;;;;8.87;4.47;;;5.20;99.90;;;;;;5020471;28;20722;-63
2023/03/05 06:11:49;;;;;;;7.53;4.30;;;5.00;99.90;;;;;;5019659;28;20315;-64
2023/03/05 06:14:16;;;;;;;5.87;4.30;;;5.00;99.90;;;;;;5001142;28;20204;-65
2023/03/05 06:16:43;;;;;;;7.23;3.97;;;5.00;99.90;;;;;;5019995;28;20232;-63
2023/03/05 06:19:14;;;;;;;8.83;3.90;;;5.00;99.90;;;;;;5020614;28;20715;-63
2023/03/05 06:21:44;;;;;;;8.23;3.97;;;5.10;99.90;;;;;;5020431;28;20250;-66
2023/03/05 06:24:11;;;;;;;7.13;4.53;;;5.00;99.90;;;;;;5016185;28;20240;-63
2023/03/05 06:26:38;;;;;;;9.47;4.87;;;5.00;99.90;;;;;;5016523;28;20197;-64
2023/03/05 06:29:05;;;;;;;8.33;4.50;;;5.20;99.90;;;;;;5019158;28;20225;-63
2023/03/05 06:31:32;;;;;;;9.17;4.77;;;5.00;99.90;;;;;;5018124;28;20273;-66
2023/03/05 06:34:02;;;;;;;6.50;4.50;;;5.00;99.90;;;;;;5020246;28;20230;-64
2023/03/05 06:36:30;;;;;;;8.87;4.60;;;5.10;99.90;;;;;;5006376;28;20274;-64
2023/03/05 06:38:57;;;;;;;7.37;4.43;;;5.10;99.90;;;;;;5019863;28;20215;-65
2023/03/05 06:41:27;;;;;;;6.67;4.77;;;5.10;99.90;;;;;;5017993;28;20206;-63
2023/03/05 06:43:54;;;;;;;7.60;4.90;;;5.10;99.90;;;;;;5018109;28;20312;-63
2023/03/05 06:46:27;;;;;;;7.37;4.70;;;5.10;99.90;;;;;;5015686;28;20714;-64
2023/03/05 06:48:56;;;;;;;5.17;4.17;;;4.90;99.90;;;;;;5019809;28;20310;-63
2023/03/05 06:51:26;;;;;;;7.73;4.57;;;5.10;99.90;;;;;;5018382;28;20228;-63
2023/03/05 06:53:54;;;;;;;9.27;4.47;;;5.20;99.90;;;;;;5020363;28;20204;-65
2023/03/05 06:56:21;;;;;;;5.03;4.10;;;5.20;99.90;;;;;;5018385;28;20337;-63
2023/03/05 06:58:50;;;;;;;6.67;4.17;;;5.30;99.90;;;;;;5002675;28;20677;-64
2023/03/05 07:01:18;;;;;;;6.57;4.50;;;5.10;99.90;;;;;;5008142;28;20259;-65
2023/03/05 07:03:49;;;;;;;9.80;4.30;;;5.20;99.90;;;;;;5021085;28;20675;-64
2023/03/05 07:06:17;;;;;;;11.90;4.37;;;5.00;99.90;;;;;;4998958;28;20209;-65
2023/03/05 07:08:43;;;;;;;9.03;4.40;;;5.10;99.90;;;;;;5018904;28;20785;-64
2023/03/05 07:11:13;;;;;;;9.37;4.53;;;5.10;99.90;;;;;;5019522;28;20234;-63
2023/03/05 07:13:40;;;;;;;6.70;4.63;;;5.10;99.90;;;;;;5019006;28;20201;-64
2023/03/05 07:16:09;;;;;;;6.67;3.83;;;5.20;99.90;;;;;;5017531;28;20541;-63
2023/03/05 07:18:36;;;;;;;8.40;5.17;;;5.20;99.90;;;;;;5019030;28;20235;-63
2023/03/05 07:21:05;;;;;;;9.20;4.43;;;5.10;99.90;;;;;;5018364;28;20304;-64
2023/03/05 07:23:33;;;;;;;10.43;5.47;;;4.90;99.90;;;;;;5019345;28;20298;-64
2023/03/05 07:26:02;;;;;;;9.27;5.40;;;4.80;99.90;;;;;;5016447;28;20323;-63
2023/03/05 07:28:29;;;;;;;6.93;4.57;;;4.70;99.90;;;;;;5018327;28;20214;-63
2023/03/05 07:31:01;;;;;;;10.83;5.23;;;4.70;99.90;;;;;;5012667;28;20335;-63
2023/03/05 07:33:28;;;;;;;5.10;4.30;;;4.70;99.90;;;;;;5017537;28;20299;-63
2023/03/05 07:35:55;;;;;;;8.63;4.60;;;4.90;99.90;;;;;;5017602;28;20223;-63
2023/03/05 07:38:22;;;;;;;9.00;4.73;;;4.80;99.90;;;;;;5018950;28;20227;-63
2023/03/05 07:40:50;;;;;;;8.97;4.20;;;4.90;99.90;;;;;;5018336;28;20950;-62
2023/03/05 07:43:17;;;;;;;6.37;3.93;;;4.80;99.90;;;;;;5018539;28;20206;-62
2023/03/05 07:45:45;;;;;;;4.77;3.93;;;4.80;99.90;;;;;;4997371;28;20208;-63
2023/03/05 07:48:19;;;;;;;7.70;4.00;;;4.70;99.90;;;;;;5001851;28;20212;-65
2023/03/05 07:50:47;;;;;;;5.67;3.83;;;4.70;99.90;;;;;;5016642;28;20203;-63
2023/03/05 07:53:14;;;;;;;6.90;3.53;;;4.80;99.90;;;;;;5015141;28;20201;-64
2023/03/05 07:55:45;;;;;;;7.30;3.70;;;4.80;99.90;;;;;;5016634;28;20218;-64
2023/03/05 07:58:13;;;;;;;7.77;3.67;;;5.10;99.90;;;;;;5018532;28;20306;-64
2023/03/05 08:00:40;;;;;;;6.93;3.73;;;5.10;99.90;;;;;;5017979;28;20626;-64
2023/03/05 08:03:07;;;;;;;7.70;3.40;;;5.20;99.90;;;;;;5019532;28;20682;-64
2023/03/05 08:05:34;;;;;;;10.07;3.70;;;5.20;99.90;;;;;;4999719;28;20194;-64
2023/03/05 08:08:01;;;;;;;7.03;3.50;;;5.30;99.90;;;;;;5020065;28;20213;-64
2023/03/05 08:10:27;;;;;;;6.23;3.00;;;5.10;99.90;;;;;;5019752;28;20200;-64
2023/03/05 08:12:54;;;;;;;8.83;3.53;;;5.40;99.90;;;;;;5018084;28;20191;-64
2023/03/05 08:15:21;;;;;;;6.10;2.77;;;5.30;99.90;;;;;;5018421;28;22793;-64
2023/03/05 08:17:48;;;;;;;4.73;2.83;;;5.40;99.90;;;;;;5018081;28;20225;-64
2023/03/05 08:20:15;;;;;;;4.63;2.40;;;5.70;99.90;;;;;;5008322;28;20656;-64
2023/03/05 08:22:42;;;;;;;5.33;2.37;;;5.80;99.90;;;;;;5018857;28;20231;-65
2023/03/05 08:25:09;;;;;;;3.10;2.07;;;5.80;99.90;;;;;;5019238;28;20828;-66
2023/03/05 08:27:40;;;;;;;4.93;2.43;;;5.80;99.90;;;;;;5020049;28;20266;-64
2023/03/05 08:30:10;;;;;;;8.30;3.37;;;5.90;99.90;;;;;;5001912;28;20246;-65
2023/03/05 08:32:37;;;;;;;4.27;2.67;;;5.90;99.90;;;;;;5018803;28;20229;-64
2023/03/05 08:35:05;;;;;;;4.63;2.60;;;5.90;99.90;;;;;;5015140;28;20293;-65
2023/03/05 08:37:32;;;;;;;2.67;2.13;;;6.00;99.90;;;;;;4658580;28;10000393;-64
2023/03/05 08:39:59;;;;;;;4.37;2.20;;;5.90;99.90;;;;;;5003573;28;20259;-64
2023/03/05 08:42:26;;;;;;;3.03;2.27;;;6.10;99.90;;;;;;5018015;28;20268;-64
2023/03/05 08:44:53;;;;;;;2.43;2.10;;;6.00;99.90;;;;;;5019751;28;20201;-64
2023/03/05 08:47:20;;;;;;;2.73;1.90;;;6.10;99.90;;;;;;5012086;28;20281;-64
2023/03/05 08:49:47;;;;;;;3.97;2.63;;;6.00;99.90;;;;;;5005060;28;20240;-66
2023/03/05 08:52:13;;;;;;;3.43;1.87;;;6.10;99.90;;;;;;5014982;28;20231;-64
2023/03/05 08:54:40;;;;;;;3.50;1.40;;;6.10;99.90;;;;;;5009162;28;20660;-64
2023/03/05 08:57:07;;;;;;;2.33;1.50;;;6.40;99.90;;;;;;5011615;28;20567;-64
2023/03/05 08:59:34;;;;;;;2.10;1.30;;;6.30;99.90;;;;;;5013999;28;20206;-61
2023/03/05 09:02:01;;;;;;;2.03;1.13;;;6.20;99.90;;;;;;5016134;28;20210;-60
2023/03/05 09:04:28;;;;;;;2.67;1.17;;;6.30;99.90;;;;;;5012529;28;20288;-61
2023/03/05 09:06:56;;;;;;;2.10;1.50;;;6.20;99.90;;;;;;5014198;28;20273;-60
2023/03/05 09:09:23;;;;;;;3.30;1.43;;;6.30;99.90;;;;;;5015997;28;20219;-60
2023/03/05 09:11:51;;;;;;;6.40;1.53;;;6.40;99.90;;;;;;4997685;28;20405;-60
2023/03/05 09:14:18;;;;;;;3.17;1.50;;;6.60;99.90;;;;;;5009941;28;20245;-60
2023/03/05 09:16:44;;;;;;;2.67;1.03;;;6.50;99.90;;;;;;5010195;28;20231;-61
2023/03/05 09:19:13;;;;;;;3.40;1.30;;;6.30;19.90;;;;;;5015896;28;20284;-61
2023/03/05 09:21:41;;;;;;;3.30;1.50;;;6.60;99.90;;;;;;5011592;28;20245;-60
2023/03/05 09:24:08;;;;;;;3.03;1.00;;;6.70;99.90;;;;;;4999057;28;20205;-60
2023/03/05 09:26:35;;;;;;;1.70;1.40;;;6.70;99.90;;;;;;5011738;28;20192;-60
2023/03/05 09:29:02;;;;;;;2.90;1.30;;;6.80;99.90;;;;;;5016834;28;20755;-60
2023/03/05 09:31:29;;;;;;;3.30;1.47;;;6.80;99.90;;;;;;5012782;28;20208;-60
2023/03/05 09:33:56;;;;;;;2.00;1.07;;;6.70;99.90;;;;;;5015980;28;20721;-60
2023/03/05 09:36:25;;;;;;;3.00;1.07;;;6.70;99.90;;;;;;5016661;28;20213;-60
2023/03/05 09:38:53;;;;;;;1.80;1.50;;;6.60;99.90;;;;;;5003704;28;20333;-62
2023/03/05 09:41:29;;;;;;;2.03;1.33;;;6.70;99.90;;;;;;5001268;28;20223;-61
2023/03/05 09:44:29;;;;;;;2.70;1.20;;;6.70;99.90;;;;;;5013078;28;20201;-60
2023/03/05 09:47:08;;;;;;;1.90;0.90;;;6.40;1.00;;;;;;5014209;28;20675;-60
2023/03/05 09:50:05;;;;;;;2.03;1.27;;;6.20;99.90;;;;;;5017314;28;20319;-60
2023/03/05 09:52:36;;;;;;;3.13;0.90;;;6.60;99.90;;;;;;4983228;28;20312;-66
2023/03/05 09:55:08;;;;;;;1.60;0.90;;;6.70;99.90;;;;;;4997263;28;20240;-65
2023/03/05 09:57:41;;;;;;;1.37;1.10;;;6.50;99.90;;;;;;5018304;28;20228;-71
2023/03/05 10:00:14;;;;;;;1.17;1.10;;;6.40;99.90;;;;;;5011510;28;20204;-65
2023/03/05 10:02:49;;;;;;;2.83;1.07;;;6.40;99.90;;;;;;5008312;28;20205;-67
2023/03/05 10:05:27;;;;;;;4.17;0.97;;;6.40;99.90;;;;;;5015387;28;20556;-65
2023/03/05 10:08:02;;;;;;;1.80;0.77;;;6.30;99.90;;;;;;4998883;28;20204;-65
2023/03/05 10:10:43;;;;;;;2.27;0.93;;;6.40;99.90;;;;;;5017448;28;20219;-65
2023/03/05 10:13:23;;;;;;;1.60;0.67;;;6.30;99.90;;;;;;5018905;28;20648;-65
2023/03/05 10:15:59;;;;;;;2.13;1.10;;;6.40;99.90;;;;;;5000444;28;20501;-65
2023/03/05 10:18:50;;;;;;;1.80;0.83;;;6.60;99.90;;;;;;5020173;28;20896;-66
2023/03/05 10:21:25;;;;;;;1.33;0.43;;;6.60;99.90;;;;;;5019737;28;20206;-65
2023/03/05 10:24:15;;;;;;;0.60;0.60;;;6.60;99.90;;;;;;5018861;28;20201;-65
2023/03/05 10:26:57;;;;;;;5.33;1.10;;;6.70;99.90;;;;;;5015593;28;20223;-65
2023/03/05 10:29:33;;;;;;;0.83;0.70;;;6.90;99.90;;;;;;5012540;28;20213;-65
2023/03/05 10:32:09;;;;;;;1.27;0.80;;;7.10;99.90;;;;;;4996638;28;20199;-66
2023/03/05 10:34:48;;;;;;;2.70;1.60;;;7.30;99.90;;;;;;5018154;28;20625;-66
2023/03/05 10:37:36;;;;;;;1.60;1.10;;;7.20;1.00;;;;;;5014092;28;20817;-66
2023/03/05 10:40:16;;;;;;;1.50;0.90;;;7.20;99.90;;;;;;5008249;28;20208;-66
2023/03/05 10:43:12;;;;;;;2.40;1.07;;;7.00;99.90;;;;;;5015187;28;20613;-66
2023/03/05 10:45:46;;;;;;;2.67;1.20;;;7.30;99.90;;;;;;5005866;28;20235;-66
2023/03/05 10:48:44;;;;;;;1.63;0.90;;;7.30;99.90;;;;;;4996695;28;20212;-65
2023/03/05 10:51:47;;;;;;;1.17;0.80;;;7.20;1.00;;;;;;5005428;28;20719;-65
2023/03/05 10:54:29;;;;;;;2.30;0.90;;;7.40;1.00;;;;;;4997611;28;20205;-65
2023/03/05 10:57:11;;;;;;;2.47;0.87;;;7.40;1.00;;;;;;5006033;28;20719;-65
2023/03/05 10:59:45;;;;;;;1.23;0.90;;;7.40;1.00;;;;;;5009694;28;22289;-64
2023/03/05 11:02:12;;;;;;;1.20;1.10;;;7.30;1.00;;;;;;5007854;28;20731;-66
2023/03/05 11:04:40;;;;;;;3.00;1.10;;;7.40;1.00;;;;;;4992957;28;20312;-65
2023/03/05 11:07:31;;;;;;;3.80;0.90;;;7.40;1.00;;;;;;5008277;28;20201;-64
2023/03/05 11:10:18;;;;;;;1.50;0.90;;;7.40;49.90;;;;;;4985870;28;20303;-65
2023/03/05 11:12:46;;;;;;;2.53;0.90;;;7.50;1.00;;;;;;5007084;28;20196;-65
2023/03/05 11:15:13;;;;;;;4.30;0.90;;;7.50;1.00;;;;;;5007138;28;20279;-65
2023/03/05 11:17:47;;;;;;;1.10;0.70;;;7.50;1.00;;;;;;5011583;28;21300;-63
2023/03/05 11:20:26;;;;;;;4.43;1.00;;;7.50;17.50;;;;;;5003131;28;20539;-65
2023/03/05 11:23:16;;;;;;;3.13;1.50;;;7.30;83.60;;;;;;4994990;28;20629;-65
2023/03/05 11:26:04;;;;;;;1.47;0.97;;;7.50;1.00;;;;;;5005623;28;20241;-63
2023/03/05 11:28:33;;;;;;;2.00;0.93;;;7.70;1.00;;;;;;5014353;28;20205;-64
2023/03/05 11:31:14;;;;;;;2.27;1.23;;;7.70;1.00;;;;;;5009248;28;20223;-63
2023/03/05 11:34:02;;;;;;;1.70;1.20;;;7.60;1.00;;;;;;5001924;28;20208;-64
2023/03/05 11:36:32;;;;;;;2.93;1.03;;;7.70;1.00;;;;;;5013748;28;20237;-64
2023/03/05 11:39:05;;;;;;;1.70;1.07;;;7.70;99.90;;;;;;5008275;28;20209;-66
2023/03/05 11:41:32;;;;;;;1.10;0.80;;;7.70;99.90;;;;;;5011633;28;20256;-64
2023/03/05 11:44:02;;;;;;;2.33;0.90;;;7.50;1.00;;;;;;5012465;28;20214;-63
2023/03/05 11:46:36;;;;;;;2.87;1.07;;;7.50;99.90;;;;;;5015126;28;20719;-66
2023/03/05 11:49:05;;;;;;;1.77;0.93;;;7.30;99.90;;;;;;5015680;28;20194;-61
2023/03/05 11:51:44;;;;;;;1.90;1.47;;;7.40;99.90;;;;;;4995450;28;20205;-64
2023/03/05 11:54:21;;;;;;;2.33;1.13;;;7.70;1.00;;;;;;4992354;28;20313;-60
2023/03/05 11:56:51;;;;;;;1.40;0.90;;;7.80;99.90;;;;;;4999074;28;20247;-63
2023/03/05 11:59:38;;;;;;;1.53;0.90;;;7.70;99.90;;;;;;5009517;28;20217;-65
2023/03/05 12:02:20;;;;;;;2.93;1.00;;;7.70;99.90;;;;;;5009785;28;20197;-64
2023/03/05 12:04:48;;;;;;;2.50;1.10;;;7.80;99.90;;;;;;4987449;28;20217;-63
2023/03/05 12:07:21;;;;;;;2.87;1.30;;;7.90;99.90;;;;;;4989287;28;20721;-63
2023/03/05 12:09:51;;;;;;;0.90;0.80;;;7.80;99.90;;;;;;5008290;28;20218;-63
2023/03/05 12:12:34;;;;;;;1.57;0.90;;;7.70;99.90;;;;;;5013836;28;20217;-63
2023/03/05 12:15:16;;;;;;;1.90;0.93;;;7.80;86.90;;;;;;5012267;28;20302;-63
2023/03/05 12:17:47;;;;;;;1.53;1.00;;;7.90;1.00;;;;;;5013672;28;20915;-63
2023/03/05 12:20:24;;;;;;;2.20;1.37;;;7.90;99.90;;;;;;5011858;28;20273;-65
2023/03/05 12:22:51;;;;;;;1.83;1.00;;;8.00;99.90;;;;;;4993683;28;20216;-64
2023/03/05 12:25:31;;;;;;;2.70;0.83;;;7.90;99.90;;;;;;5010480;28;20241;-65
2023/03/05 12:27:59;;;;;;;2.30;1.20;;;7.90;99.90;;;;;;5010923;28;20637;-64
2023/03/05 12:30:40;;;;;;;3.93;1.27;;;7.70;99.90;;;;;;5010954;28;20585;-64
2023/03/05 12:33:40;;;;;;;2.30;1.20;;;7.90;1.00;;;;;;4996037;28;20783;-64
2023/03/05 12:36:19;;;;;;;1.93;1.20;;;7.90;99.90;;;;;;4987732;28;20610;-64
2023/03/05 12:38:50;;;;;;;8.10;2.17;;;8.00;99.90;;;;;;5009922;28;20252;-64
2023/03/05 12:41:23;;;;;;;1.47;1.30;;;8.00;1.00;;;;;;4994380;28;20212;-62
2023/03/05 12:44:05;;;;;;;2.53;0.90;;;7.80;99.90;;;;;;5014790;28;20212;-61
2023/03/05 12:46:37;;;;;;;1.70;1.10;;;7.60;99.90;;;;;;4993550;28;20203;-62
2023/03/05 12:49:17;;;;;;;0.80;0.80;;;7.70;1.00;;;;;;5015482;28;20202;-63
2023/03/05 12:51:46;;;;;;;1.23;1.00;;;7.90;99.90;;;;;;4996706;28;20346;-60
2023/03/05 12:54:28;;;;;;;3.07;1.50;;;8.10;99.90;;;;;;5010031;28;20285;-65
2023/03/05 12:57:01;;;;;;;2.77;1.17;;;8.20;99.90;;;;;;5012495;28;20213;-64
2023/03/05 12:59:51;;;;;;;2.07;1.63;;;8.30;99.90;;;;;;5009606;28;20219;-63
2023/03/05 13:02:21;;;;;;;1.63;1.20;;;8.20;99.90;;;;;;5006116;28;20648;-63
2023/03/05 13:04:51;;;;;;;2.47;1.43;;;8.10;99.90;;;;;;5012655;28;20289;-64
2023/03/05 13:07:18;;;;;;;2.77;1.10;;;8.30;99.90;;;;;;5016420;28;20217;-64
2023/03/05 13:09:57;;;;;;;2.60;0.90;;;8.20;99.90;;;;;;5015375;28;20312;-60
2023/03/05 13:12:26;;;;;;;3.80;1.30;;;8.20;99.90;;;;;;5015150;28;20280;-61
2023/03/05 13:15:07;;;;;;;3.50;0.93;;;8.30;99.90;;;;;;5009569;28;20267;-63